Time;durP1;ratioP1;P1;durP2;ratioP2;P2;SDS_P1;SDS_P2;PMS_P1;PMS_P2;Temp;Humidity;BMP_temperature;BMP_pressure;BME280_temperature;BME280_humidity;BME280_pressure;Samples;Min_cycle;Max_cycle;Signal;HPM_P1;HPM_P2
2021/07/21 00:01:47;;;;;;;13.88;3.70;;;44.40;26.40;;;;;;5061420;28;20553;-63
2021/07/21 00:04:14;;;;;;;14.93;3.35;;;44.40;26.70;;;;;;5066443;28;20155;-63
2021/07/21 00:06:40;;;;;;;9.73;3.30;;;44.20;27.00;;;;;;5065041;28;20084;-62
2021/07/21 00:09:08;;;;;;;14.95;3.35;;;44.20;26.80;;;;;;5064786;28;20073;-62
2021/07/21 00:14:20;;;;;;;11.88;3.15;;;44.10;26.60;;;;;;5068505;28;20097;-62
2021/07/21 00:16:59;;;;;;;8.90;3.50;;;44.20;26.10;;;;;;5063515;28;20084;-62
2021/07/21 00:22:14;;;;;;;20.77;3.38;;;44.20;26.70;;;;;;5066196;28;20088;-64
2021/07/21 00:24:44;;;;;;;13.00;3.15;;;44.30;26.40;;;;;;5063764;28;20069;-63
2021/07/21 00:27:12;;;;;;;16.48;3.83;;;44.20;26.00;;;;;;5068416;28;20095;-62
2021/07/21 00:29:38;;;;;;;12.88;3.92;;;44.10;26.20;;;;;;5062256;28;20078;-63
2021/07/21 00:32:05;;;;;;;17.92;3.25;;;44.00;26.10;;;;;;5061554;28;20081;-63
2021/07/21 00:34:32;;;;;;;16.73;3.45;;;44.10;25.90;;;;;;5062065;28;20610;-63
2021/07/21 00:36:58;;;;;;;16.85;3.22;;;44.10;25.90;;;;;;5064954;28;20078;-63
2021/07/21 00:39:25;;;;;;;17.40;3.50;;;44.10;25.90;;;;;;5064017;28;20462;-63
2021/07/21 00:41:51;;;;;;;12.75;3.40;;;43.90;26.70;;;;;;5062325;28;20080;-63
2021/07/21 00:44:18;;;;;;;10.88;2.70;;;43.90;26.50;;;;;;5042621;28;20085;-63
2021/07/21 00:46:44;;;;;;;13.07;3.65;;;43.80;26.90;;;;;;5064199;28;20072;-63
2021/07/21 00:49:11;;;;;;;11.05;3.75;;;43.90;27.00;;;;;;5067340;28;20564;-63
2021/07/21 00:51:39;;;;;;;11.13;3.90;;;43.80;26.60;;;;;;5062636;28;20109;-63
2021/07/21 00:54:05;;;;;;;16.45;4.53;;;43.70;26.40;;;;;;5066100;28;20159;-62
2021/07/21 00:56:34;;;;;;;11.82;3.30;;;43.70;27.00;;;;;;5064376;28;20077;-63
2021/07/21 00:59:01;;;;;;;15.60;3.65;;;43.70;26.30;;;;;;5064345;28;20108;-63
2021/07/21 01:01:27;;;;;;;13.88;3.80;;;43.50;26.50;;;;;;5061924;28;20084;-63
2021/07/21 01:03:54;;;;;;;10.23;3.47;;;43.50;26.60;;;;;;5059743;28;20626;-64
2021/07/21 01:06:20;;;;;;;9.18;2.83;;;43.50;26.60;;;;;;5069365;28;20084;-62
2021/07/21 01:08:50;;;;;;;15.50;3.53;;;43.50;26.30;;;;;;5064457;28;20077;-63
2021/07/21 01:11:41;;;;;;;9.98;3.10;;;43.50;26.10;;;;;;5065240;28;20089;-63
2021/07/21 01:14:17;;;;;;;18.60;4.95;;;43.50;25.80;;;;;;5064746;28;20203;-63
2021/07/21 01:16:48;;;;;;;7.35;2.97;;;43.40;25.80;;;;;;5067139;28;20331;-63
2021/07/21 01:19:18;;;;;;;17.98;2.75;;;43.40;25.30;;;;;;5062815;28;20072;-61
2021/07/21 01:21:59;;;;;;;14.32;3.80;;;43.40;25.50;;;;;;5065311;28;20163;-63
2021/07/21 01:24:44;;;;;;;8.45;3.08;;;43.30;25.80;;;;;;5063697;28;20083;-63
2021/07/21 01:27:20;;;;;;;15.38;3.95;;;43.30;26.10;;;;;;5060511;28;20069;-63
2021/07/21 01:29:51;;;;;;;16.33;4.57;;;43.30;27.30;;;;;;5061821;28;20103;-63
2021/07/21 01:32:19;;;;;;;14.00;3.67;;;43.20;26.40;;;;;;5064683;28;20582;-63
2021/07/21 01:34:50;;;;;;;13.07;3.28;;;43.10;25.90;;;;;;5064750;28;20097;-63
2021/07/21 01:37:17;;;;;;;11.93;3.15;;;43.00;25.10;;;;;;5062837;28;20154;-62
2021/07/21 01:39:48;;;;;;;7.95;2.20;;;43.00;25.50;;;;;;5046692;28;20085;-62
2021/07/21 01:42:18;;;;;;;14.18;2.72;;;42.80;25.10;;;;;;5062529;28;20072;-63
2021/07/21 01:44:49;;;;;;;8.25;2.05;;;42.90;25.20;;;;;;5064721;28;20078;-62
2021/07/21 01:47:22;;;;;;;7.78;2.15;;;42.90;23.60;;;;;;5044738;28;20069;-63
2021/07/21 01:49:53;;;;;;;8.90;2.70;;;42.80;22.70;;;;;;5063065;28;20105;-64
2021/07/21 01:52:27;;;;;;;7.88;4.22;;;42.70;23.40;;;;;;5063700;28;20126;-62
2021/07/21 01:54:57;;;;;;;4.55;2.15;;;42.80;23.80;;;;;;5063407;28;20113;-63
2021/07/21 01:57:27;;;;;;;8.68;2.35;;;43.00;23.20;;;;;;5060583;28;20112;-63
2021/07/21 01:59:54;;;;;;;4.85;2.25;;;43.40;22.80;;;;;;5062707;28;20156;-63
2021/07/21 02:02:23;;;;;;;12.30;2.47;;;44.00;22.10;;;;;;5059314;28;20065;-63
2021/07/21 02:04:52;;;;;;;9.35;2.55;;;44.40;21.80;;;;;;5058211;28;20604;-63
2021/07/21 02:07:21;;;;;;;6.55;2.55;;;44.30;21.90;;;;;;5060943;28;20607;-61
2021/07/21 02:09:47;;;;;;;7.30;2.20;;;43.90;22.40;;;;;;5066908;28;20072;-62
2021/07/21 02:12:15;;;;;;;6.57;2.10;;;43.50;22.50;;;;;;5065487;28;20122;-62
2021/07/21 02:14:43;;;;;;;5.50;1.90;;;43.10;22.40;;;;;;5062538;28;20187;-63
2021/07/21 02:17:10;;;;;;;3.65;1.80;;;42.70;22.60;;;;;;5065044;28;20479;-62
2021/07/21 02:19:38;;;;;;;6.53;2.10;;;42.50;22.50;;;;;;5060007;28;20077;-63
2021/07/21 02:22:05;;;;;;;7.93;1.88;;;42.30;22.60;;;;;;5060540;28;20126;-64
2021/07/21 02:24:32;;;;;;;5.90;1.98;;;42.10;23.20;;;;;;5060736;28;20072;-63
2021/07/21 02:26:59;;;;;;;8.07;2.10;;;42.00;22.30;;;;;;5064058;28;20109;-63
2021/07/21 02:29:26;;;;;;;7.07;1.75;;;41.90;22.10;;;;;;5060011;28;20878;-62
2021/07/21 02:32:05;;;;;;;9.05;2.00;;;41.80;21.90;;;;;;5058949;28;20085;-62
2021/07/21 02:34:32;;;;;;;8.18;1.98;;;41.80;21.90;;;;;;5061697;28;20089;-62
2021/07/21 02:36:59;;;;;;;5.82;1.77;;;41.60;22.10;;;;;;5065619;28;20080;-63
2021/07/21 02:39:26;;;;;;;7.05;2.33;;;41.60;22.30;;;;;;5057775;28;20105;-63
2021/07/21 02:41:53;;;;;;;4.50;1.70;;;41.50;22.30;;;;;;5042812;28;20164;-63
2021/07/21 02:44:20;;;;;;;6.72;1.83;;;41.50;22.30;;;;;;5060246;28;20077;-64
2021/07/21 02:46:48;;;;;;;3.92;1.80;;;41.40;22.90;;;;;;5066576;28;20130;-64
2021/07/21 02:49:19;;;;;;;5.13;1.77;;;41.30;23.10;;;;;;5063719;28;20084;-63
2021/07/21 02:52:04;;;;;;;9.68;2.00;;;41.20;23.20;;;;;;5059804;28;20470;-64
2021/07/21 02:54:37;;;;;;;9.03;1.90;;;41.10;23.10;;;;;;5064791;28;20101;-62
2021/07/21 02:57:20;;;;;;;8.57;1.90;;;41.00;23.60;;;;;;5070929;28;20073;-63
2021/07/21 02:59:51;;;;;;;5.53;2.00;;;41.00;24.10;;;;;;5062992;28;20077;-62
2021/07/21 03:02:22;;;;;;;7.55;1.80;;;40.90;24.20;;;;;;5065328;28;20121;-63
2021/07/21 03:04:51;;;;;;;5.10;2.17;;;40.80;24.30;;;;;;5044289;28;20068;-62
2021/07/21 03:07:21;;;;;;;7.00;2.00;;;40.70;24.30;;;;;;5072104;28;20069;-63
2021/07/21 03:09:49;;;;;;;7.70;1.77;;;40.50;24.70;;;;;;5066388;28;20538;-63
2021/07/21 03:12:17;;;;;;;8.07;2.05;;;40.40;25.00;;;;;;5070686;28;20460;-62
2021/07/21 03:14:44;;;;;;;7.10;1.83;;;40.20;24.60;;;;;;5064439;28;20144;-63
2021/07/21 03:17:15;;;;;;;5.50;2.15;;;40.20;25.10;;;;;;5067693;28;20081;-63
2021/07/21 03:19:49;;;;;;;8.95;1.83;;;40.00;25.40;;;;;;5069692;28;20104;-62
2021/07/21 03:22:20;;;;;;;6.13;2.13;;;39.90;56.00;;;;;;5064675;28;20091;-63
2021/07/21 03:24:47;;;;;;;15.75;2.70;;;39.90;26.00;;;;;;5066175;28;20149;-63
2021/07/21 03:27:14;;;;;;;9.55;2.40;;;39.90;26.20;;;;;;5069396;28;20103;-63
2021/07/21 03:29:42;;;;;;;8.48;2.28;;;39.80;25.60;;;;;;5065534;28;20081;-63
2021/07/21 03:32:08;;;;;;;5.07;2.08;;;39.70;25.80;;;;;;5065675;28;20073;-63
2021/07/21 03:34:40;;;;;;;5.85;2.20;;;39.70;26.30;;;;;;5070134;28;20105;-65
2021/07/21 03:37:10;;;;;;;8.25;2.10;;;39.60;26.70;;;;;;5051116;28;20162;-64
2021/07/21 03:39:40;;;;;;;5.90;2.25;;;39.50;26.50;;;;;;5068061;28;20503;-63
2021/07/21 03:42:08;;;;;;;7.68;1.98;;;39.40;26.60;;;;;;5069473;28;20095;-63
2021/07/21 03:44:37;;;;;;;9.73;2.17;;;39.40;26.80;;;;;;5066362;28;20084;-63
2021/07/21 03:47:05;;;;;;;8.50;2.50;;;39.30;26.30;;;;;;5066525;28;20109;-64
2021/07/21 03:49:32;;;;;;;7.03;2.40;;;39.20;26.70;;;;;;5065255;28;20076;-64
2021/07/21 03:51:59;;;;;;;7.10;2.65;;;39.20;26.90;;;;;;5074516;28;20089;-63
2021/07/21 03:54:27;;;;;;;9.35;2.83;;;39.10;26.80;;;;;;5054287;28;20104;-64
2021/07/21 03:56:55;;;;;;;21.23;3.70;;;39.10;27.60;;;;;;5046443;28;20080;-63
2021/07/21 03:59:23;;;;;;;7.80;2.70;;;39.10;27.80;;;;;;5068290;28;20568;-64
2021/07/21 04:01:52;;;;;;;15.88;2.75;;;39.00;28.30;;;;;;5050173;28;20069;-64
2021/07/21 04:04:20;;;;;;;22.77;3.65;;;38.90;28.70;;;;;;5061276;28;20073;-63
2021/07/21 04:06:49;;;;;;;15.32;3.10;;;38.90;29.40;;;;;;5062362;28;20526;-63
2021/07/21 04:09:19;;;;;;;15.50;2.90;;;38.90;29.80;;;;;;5064125;28;20078;-62
2021/07/21 04:11:48;;;;;;;17.63;3.38;;;38.90;30.30;;;;;;5064272;28;20172;-64
2021/07/21 04:14:18;;;;;;;12.27;3.17;;;38.90;30.60;;;;;;5066296;28;20085;-64
2021/07/21 04:16:47;;;;;;;16.70;3.35;;;38.90;30.80;;;;;;5066514;28;20088;-63
2021/07/21 04:19:15;;;;;;;15.63;3.58;;;38.90;30.90;;;;;;5064271;28;20142;-64
2021/07/21 04:21:47;;;;;;;12.93;3.08;;;38.90;30.80;;;;;;5065201;28;20077;-64
2021/07/21 04:24:17;;;;;;;18.08;3.22;;;39.00;43.10;;;;;;5046619;28;20168;-62
2021/07/21 04:26:49;;;;;;;14.30;3.42;;;38.90;28.10;;;;;;5066946;28;20091;-63
2021/07/21 04:29:19;;;;;;;20.08;2.85;;;39.00;28.50;;;;;;5062210;28;20069;-63
2021/07/21 04:31:49;;;;;;;10.57;3.22;;;39.10;26.50;;;;;;5043124;28;20466;-63
2021/07/21 04:34:18;;;;;;;15.88;3.78;;;39.10;26.10;;;;;;5066938;28;20426;-63
2021/07/21 04:36:46;;;;;;;9.18;3.20;;;39.10;26.00;;;;;;5062965;28;20091;-63
2021/07/21 04:39:16;;;;;;;11.73;2.53;;;39.10;25.80;;;;;;5059376;28;21488;-62
2021/07/21 04:41:43;;;;;;;7.20;2.47;;;39.00;25.40;;;;;;5067334;28;20170;-64
2021/07/21 04:44:10;;;;;;;6.93;2.30;;;39.00;24.60;;;;;;5065919;28;20073;-64
2021/07/21 04:46:37;;;;;;;12.68;2.65;;;38.90;24.20;;;;;;5067549;28;20069;-64
2021/07/21 04:49:05;;;;;;;10.90;2.80;;;38.90;24.30;;;;;;5047745;28;20092;-65
2021/07/21 04:51:32;;;;;;;8.32;2.70;;;38.80;24.50;;;;;;5062313;28;20124;-65
2021/07/21 04:54:04;;;;;;;9.55;2.50;;;38.80;24.60;;;;;;5067355;28;20520;-63
2021/07/21 04:56:31;;;;;;;10.10;2.53;;;38.70;25.00;;;;;;5047502;28;20155;-62
2021/07/21 04:58:58;;;;;;;8.27;2.40;;;38.70;25.10;;;;;;5064754;28;20073;-64
2021/07/21 05:01:24;;;;;;;9.52;2.75;;;38.70;24.50;;;;;;5062440;28;20077;-66
2021/07/21 05:03:54;;;;;;;9.13;2.75;;;38.60;23.90;;;;;;5047160;28;20084;-63
2021/07/21 05:06:22;;;;;;;7.75;2.20;;;38.60;23.60;;;;;;5065290;28;20168;-63
2021/07/21 05:08:49;;;;;;;7.90;2.83;;;38.60;24.30;;;;;;5068751;28;20069;-62
2021/07/21 05:11:16;;;;;;;9.02;3.00;;;38.50;24.30;;;;;;5066431;28;20164;-62
2021/07/21 05:13:42;;;;;;;12.27;2.30;;;38.50;24.60;;;;;;5049095;28;20415;-63
2021/07/21 05:16:10;;;;;;;13.50;2.95;;;38.40;24.20;;;;;;5063404;28;20228;-63
2021/07/21 05:18:42;;;;;;;12.13;2.80;;;38.40;24.50;;;;;;5059893;28;20094;-64
2021/07/21 05:21:09;;;;;;;12.40;2.85;;;38.40;25.10;;;;;;5070918;28;20415;-63
2021/07/21 05:23:36;;;;;;;16.35;3.13;;;38.20;24.90;;;;;;5062754;28;20542;-63
2021/07/21 05:26:04;;;;;;;16.92;3.25;;;38.30;25.20;;;;;;5064282;28;20069;-62
2021/07/21 05:28:30;;;;;;;7.03;2.63;;;38.10;25.30;;;;;;5062197;28;20077;-63
2021/07/21 05:30:57;;;;;;;14.48;2.70;;;38.10;25.80;;;;;;5064238;28;20081;-62
2021/07/21 05:33:23;;;;;;;12.20;2.65;;;38.00;25.30;;;;;;5061199;28;20427;-62
2021/07/21 05:35:51;;;;;;;12.07;2.78;;;37.90;25.80;;;;;;5046452;28;20093;-63
2021/07/21 05:38:18;;;;;;;13.02;3.30;;;37.80;26.10;;;;;;5059853;28;20077;-64
2021/07/21 05:40:44;;;;;;;10.32;3.22;;;37.80;26.20;;;;;;5042618;28;20082;-63
2021/07/21 05:43:11;;;;;;;12.55;3.17;;;37.70;26.40;;;;;;5062170;28;20073;-63
2021/07/21 05:45:38;;;;;;;14.50;3.15;;;37.70;26.30;;;;;;5065734;28;20070;-63
2021/07/21 05:48:05;;;;;;;22.25;3.60;;;37.60;26.10;;;;;;5061540;28;20105;-63
2021/07/21 05:50:31;;;;;;;14.65;3.72;;;37.60;26.10;;;;;;5062121;28;20117;-63
2021/07/21 05:53:01;;;;;;;11.38;3.30;;;37.50;25.90;;;;;;5059866;28;20515;-62
2021/07/21 05:55:28;;;;;;;9.85;3.50;;;37.40;26.30;;;;;;5055445;28;20519;-63
2021/07/21 05:57:54;;;;;;;19.33;3.72;;;37.40;26.30;;;;;;5066985;28;20105;-62
2021/07/21 06:00:21;;;;;;;15.57;3.20;;;37.40;26.30;;;;;;5064695;28;20077;-64
2021/07/21 06:02:47;;;;;;;20.05;3.35;;;37.30;25.70;;;;;;5062169;28;20074;-63
2021/07/21 06:05:14;;;;;;;21.38;3.85;;;37.40;25.90;;;;;;5061843;28;20074;-64
2021/07/21 06:07:40;;;;;;;16.63;3.47;;;37.40;25.90;;;;;;5064306;28;20553;-62
2021/07/21 06:10:08;;;;;;;16.45;3.13;;;37.30;26.20;;;;;;5060583;28;20138;-63
2021/07/21 06:12:34;;;;;;;16.83;3.22;;;37.30;27.20;;;;;;5063322;28;20122;-63
2021/07/21 06:15:03;;;;;;;11.35;2.95;;;37.30;26.70;;;;;;5047564;28;20097;-62
2021/07/21 06:17:30;;;;;;;18.73;3.35;;;37.30;26.50;;;;;;5062375;28;20073;-62
2021/07/21 06:19:57;;;;;;;12.30;3.95;;;37.20;26.40;;;;;;5042817;28;20160;-62
2021/07/21 06:22:23;;;;;;;14.48;2.83;;;37.20;26.90;;;;;;5060003;28;20097;-63
2021/07/21 06:24:50;;;;;;;15.32;3.10;;;37.10;26.90;;;;;;5062078;28;20073;-63
2021/07/21 06:27:17;;;;;;;8.98;2.97;;;37.10;26.50;;;;;;5064551;28;20101;-63
2021/07/21 06:29:43;;;;;;;14.40;2.92;;;37.10;26.20;;;;;;5064054;28;20081;-63
2021/07/21 06:32:10;;;;;;;9.48;3.00;;;37.10;25.90;;;;;;5059757;28;20073;-62
2021/07/21 06:34:36;;;;;;;12.52;2.67;;;37.10;27.90;;;;;;5063973;28;20092;-63
2021/07/21 06:37:03;;;;;;;14.23;2.92;;;37.10;25.90;;;;;;5066829;28;20533;-62
2021/07/21 06:39:29;;;;;;;10.48;2.80;;;37.10;25.30;;;;;;5066491;28;20158;-63
2021/07/21 06:41:56;;;;;;;8.60;2.58;;;37.10;25.30;;;;;;5065368;28;20084;-62
2021/07/21 06:44:22;;;;;;;41.13;4.45;;;37.10;25.00;;;;;;5050811;28;20198;-63
2021/07/21 06:46:49;;;;;;;25.48;3.70;;;37.10;25.30;;;;;;5068057;28;20197;-63
2021/07/21 06:49:15;;;;;;;9.50;2.55;;;37.10;25.20;;;;;;5064026;28;20069;-63
2021/07/21 06:51:42;;;;;;;11.90;2.53;;;37.10;25.20;;;;;;5066277;28;20203;-64
2021/07/21 06:54:08;;;;;;;8.40;2.42;;;37.10;25.30;;;;;;5069735;28;20399;-63
2021/07/21 06:56:35;;;;;;;17.75;3.10;;;37.10;25.00;;;;;;5064004;28;20088;-65
2021/07/21 06:59:02;;;;;;;13.18;2.35;;;37.10;25.60;;;;;;5066162;28;20065;-63
2021/07/21 07:01:28;;;;;;;31.40;4.03;;;37.10;25.80;;;;;;5066678;28;20484;-63
2021/07/21 07:03:54;;;;;;;20.27;3.53;;;37.10;25.50;;;;;;5067771;28;20433;-63
2021/07/21 07:06:21;;;;;;;16.23;2.75;;;37.10;25.10;;;;;;5064890;28;20165;-63
2021/07/21 07:08:48;;;;;;;11.48;2.50;;;37.10;24.80;;;;;;5066292;28;20109;-63
2021/07/21 07:11:14;;;;;;;12.07;2.30;;;37.10;25.20;;;;;;5051111;28;20088;-63
2021/07/21 07:13:41;;;;;;;9.00;2.67;;;37.00;25.30;;;;;;5064396;28;20442;-63
2021/07/21 07:16:08;;;;;;;11.85;2.55;;;37.00;25.00;;;;;;5064620;28;20146;-63
2021/07/21 07:18:36;;;;;;;9.23;2.60;;;37.00;25.00;;;;;;5065214;28;20160;-63
2021/07/21 07:21:02;;;;;;;11.90;2.50;;;36.90;25.10;;;;;;5063616;28;20126;-62
2021/07/21 07:23:29;;;;;;;9.93;2.65;;;36.90;25.50;;;;;;5065339;28;20522;-63
2021/07/21 07:25:55;;;;;;;11.70;2.58;;;36.80;25.40;;;;;;5064751;28;20077;-63
2021/07/21 07:28:22;;;;;;;7.68;3.28;;;36.70;25.70;;;;;;5064763;28;20553;-63
2021/07/21 07:30:49;;;;;;;12.85;3.10;;;36.70;25.70;;;;;;5063769;28;20093;-63
2021/07/21 07:33:15;;;;;;;6.10;2.83;;;36.60;25.60;;;;;;5062815;28;20099;-62
2021/07/21 07:35:42;;;;;;;5.40;2.83;;;36.60;26.00;;;;;;5069263;28;20093;-62
2021/07/21 07:38:11;;;;;;;11.90;3.13;;;36.60;26.50;;;;;;5069876;28;20066;-63
2021/07/21 07:40:42;;;;;;;13.23;3.03;;;36.50;26.00;;;;;;5066715;28;20152;-62
2021/07/21 07:43:09;;;;;;;6.20;2.85;;;36.50;26.00;;;;;;5066987;28;20101;-63
2021/07/21 07:45:36;;;;;;;12.55;2.83;;;36.40;25.50;;;;;;5072216;28;20431;-63
2021/07/21 07:48:03;;;;;;;15.48;2.90;;;36.40;25.70;;;;;;5071827;28;20107;-63
2021/07/21 07:50:29;;;;;;;10.82;2.30;;;36.40;25.80;;;;;;5072516;28;20176;-63
2021/07/21 07:52:56;;;;;;;10.05;2.30;;;36.40;24.80;;;;;;5072870;28;20164;-63
2021/07/21 07:55:23;;;;;;;8.02;2.35;;;36.40;25.10;;;;;;5065632;28;20528;-64
2021/07/21 07:57:50;;;;;;;9.13;2.13;;;36.40;25.60;;;;;;5065198;28;20139;-63
2021/07/21 08:00:19;;;;;;;12.18;2.38;;;36.40;25.90;;;;;;5066374;28;20084;-63
2021/07/21 08:02:45;;;;;;;8.18;2.22;;;36.40;26.10;;;;;;5066353;28;20074;-63
2021/07/21 08:05:12;;;;;;;14.75;2.30;;;36.30;25.90;;;;;;5066492;28;20069;-63
2021/07/21 08:07:39;;;;;;;6.85;2.38;;;36.20;26.10;;;;;;5064494;28;20536;-63
2021/07/21 08:10:10;;;;;;;7.72;3.40;;;36.10;26.00;;;;;;5063911;28;20131;-63
2021/07/21 08:12:36;;;;;;;10.02;3.45;;;36.10;26.30;;;;;;5069215;28;20206;-62
2021/07/21 08:15:03;;;;;;;9.23;3.00;;;36.10;27.50;;;;;;5062781;28;20094;-62
2021/07/21 08:17:30;;;;;;;7.05;2.70;;;36.00;26.60;;;;;;5065474;28;20180;-63
2021/07/21 08:19:56;;;;;;;6.80;1.90;;;35.90;26.10;;;;;;5065071;28;20153;-63
2021/07/21 08:22:22;;;;;;;9.63;2.10;;;35.90;26.10;;;;;;5064819;28;20544;-63
2021/07/21 08:24:49;;;;;;;5.65;1.90;;;35.90;26.00;;;;;;5061969;28;20084;-62
2021/07/21 08:27:15;;;;;;;8.38;2.35;;;35.90;26.20;;;;;;5063900;28;20073;-63
2021/07/21 08:29:42;;;;;;;11.90;2.17;;;35.90;26.10;;;;;;5064929;28;20539;-62
2021/07/21 08:32:09;;;;;;;7.30;2.35;;;35.80;26.40;;;;;;5062141;28;20092;-63
2021/07/21 08:34:35;;;;;;;9.95;2.15;;;35.70;26.60;;;;;;5064861;28;20115;-63
2021/07/21 08:37:02;;;;;;;9.57;2.00;;;35.70;26.80;;;;;;5066703;28;20104;-63
2021/07/21 08:39:29;;;;;;;11.05;2.40;;;35.70;26.70;;;;;;5064023;28;20069;-62
2021/07/21 08:41:55;;;;;;;10.55;2.35;;;35.70;27.10;;;;;;5062616;28;20077;-63
2021/07/21 08:44:22;;;;;;;12.15;2.88;;;35.70;27.40;;;;;;5064210;28;20085;-63
2021/07/21 08:46:49;;;;;;;13.15;2.65;;;35.60;26.90;;;;;;5060421;28;20081;-63
2021/07/21 08:49:15;;;;;;;9.45;2.80;;;35.60;27.00;;;;;;5061471;28;20113;-62
2021/07/21 08:51:43;;;;;;;10.93;3.00;;;35.50;27.80;;;;;;5063128;28;20132;-62
2021/07/21 08:54:10;;;;;;;8.98;2.85;;;35.50;27.40;;;;;;5065489;28;21383;-63
2021/07/21 08:56:38;;;;;;;10.30;2.70;;;35.40;27.70;;;;;;5060413;28;20070;-63
2021/07/21 08:59:05;;;;;;;11.93;2.50;;;35.40;27.60;;;;;;5061868;28;20160;-63
2021/07/21 09:01:35;;;;;;;15.15;2.83;;;35.30;27.80;;;;;;5063380;28;20594;-63
2021/07/21 09:04:02;;;;;;;10.95;2.58;;;35.30;28.00;;;;;;5064454;28;20077;-63
2021/07/21 09:06:29;;;;;;;16.67;2.65;;;35.30;28.10;;;;;;5065304;28;20154;-63
2021/07/21 09:08:56;;;;;;;11.05;2.80;;;35.30;28.30;;;;;;5067280;28;20073;-63
2021/07/21 09:11:22;;;;;;;10.38;2.85;;;35.20;28.50;;;;;;5065710;28;20442;-62
2021/07/21 09:13:49;;;;;;;11.35;2.63;;;35.20;28.50;;;;;;5060588;28;20081;-62
2021/07/21 09:16:16;;;;;;;12.98;2.90;;;35.10;28.90;;;;;;5062817;28;20105;-63
2021/07/21 09:18:47;;;;;;;8.93;2.10;;;35.10;29.10;;;;;;5043149;28;20066;-63
2021/07/21 09:21:16;;;;;;;7.82;2.47;;;35.10;28.90;;;;;;5062836;28;20091;-63
2021/07/21 09:23:45;;;;;;;14.90;2.72;;;35.10;28.70;;;;;;5060098;28;20078;-63
2021/07/21 09:26:20;;;;;;;9.40;2.83;;;35.10;28.30;;;;;;5066147;28;20099;-63
2021/07/21 09:28:46;;;;;;;6.88;2.25;;;35.10;28.40;;;;;;5062898;28;20064;-63
2021/07/21 09:31:34;;;;;;;10.55;2.45;;;35.00;28.50;;;;;;5065267;28;20105;-63
2021/07/21 09:34:20;;;;;;;9.82;2.35;;;35.00;28.60;;;;;;5064949;28;20068;-63
2021/07/21 09:36:48;;;;;;;10.02;2.63;;;34.90;29.40;;;;;;5060470;28;20082;-62
2021/07/21 09:39:15;;;;;;;5.30;2.20;;;34.80;29.70;;;;;;5064204;28;20084;-62
2021/07/21 09:41:54;;;;;;;7.80;2.03;;;34.70;29.10;;;;;;5063572;28;20077;-62
2021/07/21 09:44:32;;;;;;;10.52;2.30;;;34.80;29.00;;;;;;5061672;28;20077;-62
2021/07/21 09:47:31;;;;;;;6.63;2.55;;;34.80;28.30;;;;;;5063445;28;20073;-62
2021/07/21 09:50:23;;;;;;;9.70;2.35;;;34.80;28.00;;;;;;5018909;28;20101;-62
2021/07/21 09:52:55;;;;;;;10.70;2.70;;;34.90;28.00;;;;;;5042679;28;20073;-62
2021/07/21 09:55:24;;;;;;;9.48;2.60;;;34.80;27.90;;;;;;5041390;28;20105;-62
2021/07/21 09:58:07;;;;;;;10.98;2.38;;;34.80;27.70;;;;;;5046085;28;20558;-61
2021/07/21 10:00:44;;;;;;;10.52;2.47;;;34.90;28.00;;;;;;5045310;28;20557;-62
2021/07/21 10:03:25;;;;;;;12.40;2.40;;;34.90;28.00;;;;;;5044112;28;20106;-62
2021/07/21 10:05:54;;;;;;;5.40;2.47;;;34.90;28.30;;;;;;5042745;28;20088;-62
2021/07/21 10:08:49;;;;;;;9.35;2.60;;;34.80;28.50;;;;;;5044958;28;20089;-62
2021/07/21 10:11:37;;;;;;;8.43;2.97;;;34.80;28.20;;;;;;5047510;28;20073;-61
2021/07/21 10:14:03;;;;;;;6.43;2.60;;;34.70;27.80;;;;;;5045224;28;20515;-62
2021/07/21 10:16:40;;;;;;;7.60;2.45;;;34.70;28.00;;;;;;5049366;28;20179;-62
2021/07/21 10:19:11;;;;;;;8.10;2.58;;;34.70;28.10;;;;;;5041822;28;20075;-62
2021/07/21 10:21:41;;;;;;;9.60;2.50;;;34.70;28.10;;;;;;5046953;28;20557;-62
2021/07/21 10:24:09;;;;;;;8.23;2.20;;;34.70;28.10;;;;;;5044323;28;20082;-62
2021/07/21 10:26:36;;;;;;;12.52;2.38;;;34.70;28.00;;;;;;5049545;28;20070;-62
2021/07/21 10:29:04;;;;;;;12.00;2.50;;;34.70;28.10;;;;;;5046836;28;20528;-62
2021/07/21 10:31:31;;;;;;;12.23;2.35;;;34.70;28.60;;;;;;5047775;28;20431;-62
2021/07/21 10:33:57;;;;;;;9.57;2.83;;;34.60;28.60;;;;;;5047813;28;20109;-62
2021/07/21 10:36:24;;;;;;;10.23;2.45;;;34.60;29.30;;;;;;5045092;28;20144;-62
2021/07/21 10:38:51;;;;;;;12.77;2.30;;;34.60;29.20;;;;;;5047541;28;20122;-62
2021/07/21 10:41:19;;;;;;;8.00;2.40;;;34.50;29.00;;;;;;5043206;28;20082;-62
2021/07/21 10:43:52;;;;;;;10.48;2.60;;;34.40;29.40;;;;;;5048923;28;20077;-62
2021/07/21 10:46:35;;;;;;;11.57;2.00;;;34.30;29.80;;;;;;5048923;28;20470;-63
2021/07/21 11:00:42;;;;;;;10.90;2.45;;;34.10;29.60;;;;;;5050855;28;20088;-62
2021/07/21 11:03:44;;;;;;;16.13;2.85;;;34.10;29.90;;;;;;5046501;28;20124;-62
2021/07/21 11:06:11;;;;;;;14.20;2.60;;;34.00;29.90;;;;;;5034600;28;20089;-62
2021/07/21 11:08:50;;;;;;;10.63;2.63;;;34.00;30.00;;;;;;5047290;28;20487;-62
2021/07/21 11:11:22;;;;;;;14.32;2.55;;;34.00;29.90;;;;;;5046699;28;20073;-62
2021/07/21 11:13:59;;;;;;;15.73;3.00;;;34.00;30.30;;;;;;5047591;28;20069;-62
2021/07/21 11:16:48;;;;;;;13.00;2.80;;;33.90;30.00;;;;;;5045726;28;20120;-62
2021/07/21 11:19:48;;;;;;;9.15;2.60;;;33.90;30.20;;;;;;5044971;28;20077;-62
2021/07/21 11:22:24;;;;;;;22.10;2.50;;;33.80;30.20;;;;;;5004861;28;20643;-62
2021/07/21 11:25:02;;;;;;;;;;;33.70;29.90;;;;;;5049398;28;20074;-63
2021/07/21 11:27:39;;;;;;;10.48;2.60;;;33.70;30.40;;;;;;5043792;28;19957;-62
2021/07/21 11:30:32;;;;;;;14.98;2.60;;;33.70;30.30;;;;;;5046422;28;20182;-62
2021/07/21 11:33:19;;;;;;;11.02;2.50;;;33.70;30.30;;;;;;5041736;28;20077;-61
2021/07/21 11:35:45;;;;;;;10.00;2.50;;;33.70;30.30;;;;;;5042545;28;20101;-61
2021/07/21 11:38:19;;;;;;;11.88;2.78;;;33.70;30.20;;;;;;5044120;28;20085;-61
2021/07/21 11:40:47;;;;;;;6.72;2.10;;;33.70;30.20;;;;;;5048259;28;20080;-61
2021/07/21 11:43:32;;;;;;;9.88;2.58;;;33.70;50.30;;;;;;5045049;28;20149;-63
2021/07/21 11:46:04;;;;;;;12.27;3.00;;;33.70;61.00;;;;;;5047738;28;20021;-62
2021/07/21 11:48:32;;;;;;;9.02;2.15;;;33.50;55.50;;;;;;5044272;28;20156;-62
2021/07/21 11:51:00;;;;;;;5.82;2.20;;;33.80;47.50;;;;;;5060196;28;20097;-62
2021/07/21 11:53:26;;;;;;;6.95;2.60;;;33.70;30.50;;;;;;5068412;28;20080;-62
2021/07/21 11:55:53;;;;;;;8.70;2.47;;;33.70;30.60;;;;;;5063461;28;20089;-62
2021/07/21 11:58:20;;;;;;;15.85;3.25;;;33.70;30.70;;;;;;5064464;28;20491;-63
2021/07/21 12:00:50;;;;;;;8.43;2.15;;;33.50;31.60;;;;;;5065004;28;20080;-61
2021/07/21 12:03:17;;;;;;;7.65;2.60;;;33.60;30.70;;;;;;5061457;28;20130;-61
2021/07/21 12:05:54;;;;;;;9.77;2.53;;;33.60;31.20;;;;;;5064148;28;20069;-61
2021/07/21 12:08:22;;;;;;;7.13;2.65;;;33.50;30.60;;;;;;5065315;28;20103;-61
2021/07/21 12:10:49;;;;;;;9.93;2.63;;;33.50;31.10;;;;;;5068702;28;20076;-62
2021/07/21 12:13:19;;;;;;;6.53;2.47;;;33.50;30.80;;;;;;5065558;28;20084;-61
2021/07/21 12:15:47;;;;;;;12.18;2.80;;;33.50;30.90;;;;;;5065996;28;20136;-62
2021/07/21 12:18:15;;;;;;;8.27;2.35;;;33.50;30.90;;;;;;5067814;28;20072;-62
2021/07/21 12:20:44;;;;;;;9.13;2.83;;;33.50;31.00;;;;;;5063334;28;20078;-62
2021/07/21 12:23:14;;;;;;;11.52;2.55;;;33.50;30.80;;;;;;5068051;28;20073;-62
2021/07/21 12:25:41;;;;;;;10.07;2.90;;;33.40;31.30;;;;;;5065976;28;20081;-62
2021/07/21 12:28:10;;;;;;;9.27;2.60;;;33.40;31.40;;;;;;5063719;28;20077;-62
2021/07/21 12:30:37;;;;;;;7.13;2.63;;;33.30;31.70;;;;;;5068488;28;20556;-62
2021/07/21 12:33:05;;;;;;;7.18;2.25;;;33.40;31.70;;;;;;5064598;28;20188;-61
2021/07/21 12:35:33;;;;;;;12.85;2.53;;;33.30;31.40;;;;;;5064935;28;20103;-61
2021/07/21 12:38:00;;;;;;;8.50;2.95;;;33.30;31.60;;;;;;5063756;28;21228;-61
2021/07/21 12:40:32;;;;;;;8.77;2.55;;;33.30;31.40;;;;;;5063340;28;20538;-62
2021/07/21 12:43:01;;;;;;;10.88;2.60;;;33.30;31.10;;;;;;5066414;28;20073;-61
2021/07/21 12:45:33;;;;;;;7.60;2.33;;;33.30;31.30;;;;;;5069606;28;20096;-61
2021/07/21 12:48:01;;;;;;;16.77;3.05;;;33.30;31.40;;;;;;5071511;28;20148;-61
2021/07/21 12:50:35;;;;;;;12.25;2.92;;;33.20;31.50;;;;;;5065612;28;20120;-61
2021/07/21 12:53:05;;;;;;;14.50;2.78;;;33.20;31.60;;;;;;5063096;28;20065;-61
2021/07/21 12:55:40;;;;;;;11.40;2.55;;;33.20;31.70;;;;;;5064937;28;20094;-61
2021/07/21 12:58:12;;;;;;;10.15;2.80;;;33.20;31.60;;;;;;5061667;28;20095;-63
2021/07/21 13:00:50;;;;;;;7.95;2.63;;;33.10;31.40;;;;;;5064589;28;20093;-63
2021/07/21 13:03:20;;;;;;;12.93;3.00;;;33.10;31.30;;;;;;5062226;28;20069;-62
2021/07/21 13:05:52;;;;;;;13.43;3.63;;;33.10;31.40;;;;;;5043104;28;20411;-62
2021/07/21 13:08:21;;;;;;;18.73;4.47;;;33.10;32.70;;;;;;5062620;28;20077;-62
2021/07/21 13:10:49;;;;;;;23.38;5.75;;;33.00;54.80;;;;;;5047268;28;20528;-61